createdAt,value
2023-04-28T00:01:52.818Z,59.30
2023-04-28T00:04:20.473Z,58.67
2023-04-28T00:06:48.292Z,61.88
2023-04-28T00:09:15.645Z,55.63
2023-04-28T00:11:45.114Z,53.30
2023-04-28T00:14:12.770Z,49.42
2023-04-28T00:16:40.428Z,57.83
2023-04-28T00:19:08.485Z,78.88
2023-04-28T00:21:35.826Z,64.18
2023-04-28T00:24:03.160Z,59.65
2023-04-28T00:26:30.650Z,35.05
2023-04-28T00:28:57.863Z,29.63
2023-04-28T00:31:25.140Z,25.95
2023-04-28T00:33:52.358Z,24.27
2023-04-28T00:36:19.583Z,24.85
2023-04-28T00:38:46.962Z,21.73
2023-04-28T00:41:15.606Z,28.17
2023-04-28T00:43:47.236Z,20.33
2023-04-28T00:46:30.820Z,21.80
2023-04-28T00:48:58.124Z,19.92
2023-04-28T00:51:25.507Z,23.98
2023-04-28T00:53:52.768Z,21.52
2023-04-28T00:56:20.050Z,23.05
2023-04-28T00:58:47.356Z,20.70
2023-04-28T01:01:14.725Z,27.40
2023-04-28T01:03:42.125Z,27.85
2023-04-28T01:06:09.660Z,42.63
2023-04-28T01:08:37.930Z,67.20
2023-04-28T01:11:05.408Z,54.13
2023-04-28T01:13:32.902Z,61.30
2023-04-28T01:16:00.240Z,64.25
2023-04-28T01:18:27.800Z,72.63
2023-04-28T01:20:55.068Z,64.60
2023-04-28T01:23:22.327Z,71.75
2023-04-28T01:25:49.573Z,60.45
2023-04-28T01:28:16.858Z,50.80
2023-04-28T01:30:44.120Z,41.92
2023-04-28T01:33:11.746Z,49.90
2023-04-28T01:35:39.285Z,37.13
2023-04-28T01:38:06.502Z,35.88
2023-04-28T01:40:33.905Z,31.58
2023-04-28T01:43:01.206Z,38.35
2023-04-28T01:45:28.813Z,39.88
2023-04-28T01:47:56.346Z,29.42
2023-04-28T01:50:23.626Z,27.80
2023-04-28T01:52:50.868Z,27.08
2023-04-28T01:55:18.099Z,25.98
2023-04-28T01:57:45.407Z,23.02
2023-04-28T02:00:13.011Z,27.48
2023-04-28T02:02:40.989Z,25.23
2023-04-28T02:05:08.545Z,30.88
2023-04-28T02:07:36.650Z,25.75
2023-04-28T02:10:04.192Z,25.45
2023-04-28T02:12:31.493Z,18.80
2023-04-28T02:14:58.736Z,21.27
2023-04-28T02:17:26.074Z,23.33
2023-04-28T02:19:59.152Z,19.65
2023-04-28T02:22:26.715Z,24.08
2023-04-28T02:24:53.936Z,19.85
2023-04-28T02:27:21.454Z,21.52
2023-04-28T02:29:49.117Z,22.88
2023-04-28T02:32:16.367Z,24.05
2023-04-28T02:34:43.563Z,24.20
2023-04-28T02:37:10.768Z,18.25
2023-04-28T02:39:37.969Z,22.13
2023-04-28T02:42:05.476Z,20.90
2023-04-28T02:44:32.955Z,16.00
2023-04-28T02:47:01.889Z,17.73
2023-04-28T02:49:29.277Z,16.00
2023-04-28T02:51:56.640Z,16.58
2023-04-28T02:54:29.920Z,19.45
2023-04-28T02:56:57.572Z,16.70
2023-04-28T02:59:25.097Z,16.45
2023-04-28T03:01:52.305Z,18.00
2023-04-28T03:04:20.105Z,16.65
2023-04-28T03:06:47.693Z,18.45
2023-04-28T03:09:15.122Z,19.88
2023-04-28T03:11:42.401Z,21.50
2023-04-28T03:14:09.650Z,21.08
2023-04-28T03:16:37.804Z,22.75
2023-04-28T03:19:05.042Z,18.60
2023-04-28T03:21:32.380Z,20.77
2023-04-28T03:23:59.644Z,21.55
2023-04-28T03:26:26.908Z,21.50
2023-04-28T03:28:54.594Z,19.20
2023-04-28T03:31:21.848Z,20.38
2023-04-28T03:33:49.099Z,21.58
2023-04-28T03:36:16.617Z,22.02
2023-04-28T03:38:44.048Z,25.92
2023-04-28T03:41:11.466Z,25.13
2023-04-28T03:43:38.696Z,28.13
2023-04-28T03:46:05.924Z,24.70
2023-04-28T03:48:33.273Z,23.30
2023-04-28T03:51:00.507Z,20.70
2023-04-28T03:53:27.890Z,23.00
2023-04-28T03:55:55.166Z,25.27
2023-04-28T03:58:22.386Z,21.23
2023-04-28T04:00:49.765Z,27.10
2023-04-28T04:03:17.494Z,27.40
2023-04-28T04:05:45.003Z,21.65
2023-04-28T04:08:12.288Z,20.52
2023-04-28T04:10:39.502Z,19.70
2023-04-28T04:13:06.730Z,20.88
2023-04-28T04:15:33.997Z,21.85
2023-04-28T04:18:01.308Z,24.23
2023-04-28T04:20:28.608Z,24.52
2023-04-28T04:22:55.983Z,24.83
2023-04-28T04:25:23.485Z,24.17
2023-04-28T04:27:50.815Z,21.27
2023-04-28T04:30:18.069Z,22.58
2023-04-28T04:32:45.343Z,19.92
2023-04-28T04:35:12.615Z,24.58
2023-04-28T04:37:40.111Z,21.20
2023-04-28T04:40:07.857Z,24.58
2023-04-28T04:42:35.092Z,26.52
2023-04-28T04:45:02.365Z,29.00
2023-04-28T04:47:29.860Z,24.95
2023-04-28T04:49:57.228Z,24.60
2023-04-28T04:52:25.018Z,22.60
2023-04-28T04:54:52.313Z,21.50
2023-04-28T04:57:19.574Z,18.98
2023-04-28T04:59:46.812Z,20.02
2023-04-28T05:02:14.066Z,22.77
2023-04-28T05:04:41.536Z,17.08
2023-04-28T05:07:08.837Z,15.25
2023-04-28T05:09:36.098Z,17.48
2023-04-28T05:12:03.481Z,17.42
2023-04-28T05:14:30.760Z,20.08
2023-04-28T05:16:58.035Z,18.63
2023-04-28T05:19:25.428Z,16.80
2023-04-28T05:21:54.746Z,17.30
2023-04-28T05:24:25.121Z,18.33
2023-04-28T05:26:52.817Z,14.32
2023-04-28T05:29:21.766Z,15.15
2023-04-28T05:31:49.047Z,19.02
2023-04-28T05:34:16.828Z,16.08
2023-04-28T05:36:44.504Z,13.55
2023-04-28T05:39:11.719Z,16.10
2023-04-28T05:41:38.984Z,13.80
2023-04-28T05:44:06.514Z,12.82
2023-04-28T05:46:33.891Z,17.00
2023-04-28T05:49:01.144Z,13.07
2023-04-28T05:51:28.694Z,11.63
2023-04-28T05:53:55.962Z,13.98
2023-04-28T05:56:23.218Z,13.02
2023-04-28T05:58:50.872Z,11.98
2023-04-28T06:01:18.066Z,13.38
2023-04-28T06:03:45.603Z,15.65
2023-04-28T06:06:13.162Z,15.05
2023-04-28T06:08:40.544Z,15.07
2023-04-28T06:11:07.817Z,16.63
2023-04-28T06:13:35.060Z,16.05
2023-04-28T06:16:02.395Z,17.48
2023-04-28T06:18:32.550Z,13.70
2023-04-28T06:20:59.803Z,18.08
2023-04-28T06:23:27.251Z,14.15
2023-04-28T06:25:54.485Z,18.30
2023-04-28T06:28:21.796Z,17.17
2023-04-28T06:30:49.159Z,14.27
2023-04-28T06:33:16.435Z,15.55
2023-04-28T06:35:43.661Z,14.77
2023-04-28T06:38:11.146Z,14.85
2023-04-28T06:40:39.905Z,15.63
2023-04-28T06:43:07.150Z,17.30
2023-04-28T06:45:34.401Z,15.07
2023-04-28T06:48:01.663Z,13.63
2023-04-28T06:50:29.071Z,28.98
2023-04-28T06:52:56.491Z,24.02
2023-04-28T06:55:23.829Z,16.02
2023-04-28T06:57:51.100Z,15.23
2023-04-28T07:00:18.488Z,12.32
2023-04-28T07:02:45.897Z,16.70
2023-04-28T07:05:16.051Z,13.77
2023-04-28T07:07:43.820Z,14.77
2023-04-28T07:10:11.674Z,14.55
2023-04-28T07:12:39.052Z,14.50
2023-04-28T07:15:07.025Z,11.05
2023-04-28T07:17:34.801Z,11.57
2023-04-28T07:20:02.043Z,12.57
2023-04-28T07:22:29.423Z,10.18
2023-04-28T07:24:56.831Z,12.50
2023-04-28T07:27:24.029Z,12.85
2023-04-28T07:29:51.235Z,12.05
2023-04-28T07:32:18.489Z,14.35
2023-04-28T07:34:45.836Z,16.25
2023-04-28T07:37:13.081Z,16.45
2023-04-28T07:39:41.728Z,16.30
2023-04-28T07:42:09.625Z,14.43
2023-04-28T07:44:36.860Z,14.75
2023-04-28T07:47:04.154Z,13.65
2023-04-28T07:49:31.454Z,12.05
2023-04-28T07:51:58.701Z,16.17
2023-04-28T07:54:26.127Z,15.60
2023-04-28T07:56:53.501Z,14.00
2023-04-28T07:59:20.903Z,13.85
2023-04-28T08:01:48.151Z,15.63
2023-04-28T08:04:16.063Z,15.63
2023-04-28T08:06:43.523Z,18.58
2023-04-28T08:09:10.845Z,18.95
2023-04-28T08:11:38.071Z,18.77
2023-04-28T08:14:05.580Z,13.95
2023-04-28T08:16:34.459Z,12.13
2023-04-28T08:19:02.249Z,12.32
2023-04-28T08:21:29.603Z,9.93
2023-04-28T08:23:56.792Z,7.85
2023-04-28T08:26:24.853Z,9.32
2023-04-28T08:28:52.856Z,9.95
2023-04-28T08:31:20.143Z,11.80
2023-04-28T08:33:50.162Z,11.65
2023-04-28T08:36:18.254Z,8.75
2023-04-28T08:38:45.980Z,11.93
2023-04-28T08:41:15.033Z,13.13
2023-04-28T08:43:43.344Z,11.77
2023-04-28T08:46:11.073Z,12.57
2023-04-28T08:48:43.490Z,17.33
2023-04-28T08:51:14.188Z,11.02
2023-04-28T08:54:08.759Z,12.75
2023-04-28T08:56:34.928Z,10.02
2023-04-28T08:59:03.627Z,9.50
2023-04-28T09:01:34.764Z,11.40
2023-04-28T09:04:04.996Z,12.82
2023-04-28T09:06:36.146Z,11.63
2023-04-28T09:09:39.394Z,13.85
2023-04-28T09:12:06.858Z,10.30
2023-04-28T09:14:35.421Z,8.50
2023-04-28T09:17:03.263Z,8.68
2023-04-28T09:19:34.760Z,8.38
2023-04-28T09:24:43.002Z,8.23
2023-04-28T09:27:11.905Z,9.93
2023-04-28T09:29:39.434Z,8.18
2023-04-28T09:32:13.430Z,9.70
2023-04-28T09:34:48.747Z,7.97
2023-04-28T09:37:22.769Z,7.18
2023-04-28T09:39:51.049Z,9.00
2023-04-28T09:42:36.722Z,8.18
2023-04-28T09:45:05.494Z,8.32
2023-04-28T09:47:35.183Z,8.63
2023-04-28T09:50:04.695Z,10.48
2023-04-28T09:52:34.336Z,9.75
2023-04-28T09:55:03.026Z,9.15
2023-04-28T09:57:32.480Z,9.57
2023-04-28T09:59:59.949Z,13.18
2023-04-28T10:04:58.018Z,9.30
2023-04-28T10:07:25.968Z,12.43
2023-04-28T10:09:53.698Z,7.70
2023-04-28T10:12:21.777Z,6.03
2023-04-28T10:14:55.424Z,8.57
2023-04-28T10:17:22.742Z,8.27
2023-04-28T10:19:52.094Z,10.20
2023-04-28T10:22:47.948Z,8.57
2023-04-28T10:25:26.523Z,8.50
2023-04-28T10:27:53.734Z,8.30
2023-04-28T10:30:28.741Z,7.97
2023-04-28T10:33:12.029Z,8.80
2023-04-28T10:35:40.796Z,5.45
2023-04-28T10:38:08.906Z,6.97
2023-04-28T10:40:37.323Z,8.68
2023-04-28T10:43:04.826Z,9.20
2023-04-28T10:46:01.820Z,9.98
2023-04-28T10:48:29.552Z,8.43
2023-04-28T10:51:09.891Z,11.55
2023-04-28T10:53:47.231Z,11.20
2023-04-28T10:56:27.645Z,7.78
2023-04-28T10:58:55.444Z,7.88
2023-04-28T11:01:24.384Z,10.90
2023-04-28T11:04:07.626Z,9.32
2023-04-28T11:06:40.695Z,7.70
2023-04-28T11:09:31.418Z,8.43
2023-04-28T11:12:01.318Z,7.20
2023-04-28T11:14:30.188Z,6.70
2023-04-28T11:17:04.751Z,5.65
2023-04-28T11:19:33.245Z,7.10
2023-04-28T11:22:05.145Z,4.75
2023-04-28T11:24:32.472Z,5.53
2023-04-28T11:26:59.880Z,3.92
2023-04-28T11:29:36.814Z,4.70
2023-04-28T11:32:04.968Z,5.25
2023-04-28T11:34:32.771Z,7.78
2023-04-28T11:37:00.169Z,5.47
2023-04-28T11:39:29.282Z,5.45
2023-04-28T11:41:57.186Z,5.03
2023-04-28T11:44:25.926Z,5.10
2023-04-28T11:47:00.149Z,5.57
2023-04-28T11:49:30.741Z,4.53
2023-04-28T11:52:00.248Z,7.03
2023-04-28T11:54:28.911Z,5.35
2023-04-28T11:56:57.462Z,4.45
2023-04-28T11:59:31.845Z,4.63
2023-04-28T12:02:00.992Z,6.88
2023-04-28T12:04:36.468Z,5.28
2023-04-28T12:07:11.943Z,5.47
2023-04-28T12:09:46.609Z,5.88
2023-04-28T12:12:17.231Z,3.15
2023-04-28T12:15:07.111Z,3.83
2023-04-28T12:17:41.803Z,5.07
2023-04-28T12:20:13.184Z,4.40
2023-04-28T12:22:50.757Z,3.65
2023-04-28T12:25:19.431Z,4.30
2023-04-28T12:28:07.761Z,3.63
2023-04-28T12:30:39.222Z,6.38
2023-04-28T12:33:06.551Z,3.88
2023-04-28T12:35:33.830Z,3.50
2023-04-28T12:38:01.276Z,3.97
2023-04-28T12:40:28.495Z,3.13
2023-04-28T12:42:56.684Z,3.85
2023-04-28T12:45:24.319Z,3.40
2023-04-28T12:47:51.625Z,6.78
2023-04-28T12:50:18.975Z,7.30
2023-04-28T12:52:46.230Z,5.95
2023-04-28T12:55:13.552Z,3.95
2023-04-28T12:57:40.919Z,6.18
2023-04-28T13:00:08.861Z,5.75
2023-04-28T13:02:36.936Z,6.90
2023-04-28T13:05:04.508Z,7.80
2023-04-28T13:07:32.023Z,4.35
2023-04-28T13:10:00.868Z,7.65
2023-04-28T13:12:28.157Z,6.20
2023-04-28T13:14:55.308Z,4.47
2023-04-28T13:17:23.027Z,6.03
2023-04-28T13:19:50.300Z,7.20
2023-04-28T13:22:17.812Z,7.70
2023-04-28T13:24:45.230Z,5.15
2023-04-28T13:27:12.650Z,5.82
2023-04-28T13:29:40.271Z,7.95
2023-04-28T13:32:07.838Z,5.57
2023-04-28T13:34:35.394Z,6.05
2023-04-28T13:37:03.392Z,6.75
2023-04-28T13:39:30.754Z,6.85
2023-04-28T13:41:57.989Z,5.03
2023-04-28T13:44:25.295Z,6.38
2023-04-28T13:46:53.046Z,8.05
2023-04-28T13:49:20.387Z,9.57
2023-04-28T13:51:47.762Z,5.43
2023-04-28T13:54:15.057Z,6.35
2023-04-28T13:56:42.317Z,6.68
2023-04-28T13:59:09.587Z,6.35
2023-04-28T14:01:36.923Z,4.20
2023-04-28T14:04:04.395Z,7.07
2023-04-28T14:06:33.631Z,5.60
2023-04-28T14:09:02.814Z,9.90
2023-04-28T14:11:30.193Z,7.07
2023-04-28T14:13:57.442Z,6.03
2023-04-28T14:16:24.772Z,5.80
2023-04-28T14:18:52.003Z,5.43
2023-04-28T14:21:19.251Z,6.28
2023-04-28T14:23:47.147Z,7.65
2023-04-28T14:26:14.389Z,7.53
2023-04-28T14:28:42.273Z,8.18
2023-04-28T14:31:09.682Z,9.98
2023-04-28T14:33:37.154Z,10.07
2023-04-28T14:36:05.175Z,10.35
2023-04-28T14:38:32.981Z,8.82
2023-04-28T14:41:00.225Z,14.98
2023-04-28T14:43:27.531Z,8.30
2023-04-28T14:45:54.982Z,10.43
2023-04-28T14:48:22.278Z,10.07
2023-04-28T14:50:51.319Z,6.38
2023-04-28T14:53:18.853Z,8.98
2023-04-28T14:55:46.144Z,7.75
2023-04-28T14:58:13.364Z,5.72
2023-04-28T15:00:40.664Z,6.43
2023-04-28T15:03:08.113Z,6.97
2023-04-28T15:05:35.444Z,10.30
2023-04-28T15:08:02.765Z,7.80
2023-04-28T15:10:36.971Z,7.18
2023-04-28T15:13:04.469Z,8.70
2023-04-28T15:15:32.023Z,8.88
2023-04-28T15:18:00.910Z,9.57
2023-04-28T15:20:37.178Z,7.07
2023-04-28T15:23:04.521Z,4.60
2023-04-28T15:25:32.088Z,4.95
2023-04-28T15:28:00.375Z,5.57
2023-04-28T15:30:27.649Z,4.97
2023-04-28T15:32:55.121Z,6.32
2023-04-28T15:35:22.453Z,4.88
2023-04-28T15:37:52.141Z,5.13
2023-04-28T15:40:19.697Z,5.45
2023-04-28T15:42:51.594Z,4.70
2023-04-28T15:45:20.068Z,5.10
2023-04-28T15:47:49.358Z,8.48
2023-04-28T15:50:18.790Z,7.25
2023-04-28T15:52:46.861Z,5.43
2023-04-28T15:55:15.138Z,6.13
2023-04-28T15:57:42.763Z,7.70
2023-04-28T16:00:11.342Z,7.00
2023-04-28T16:02:39.433Z,8.02
2023-04-28T16:05:07.341Z,11.15
2023-04-28T16:07:39.060Z,16.05
2023-04-28T16:10:08.565Z,20.27
2023-04-28T16:12:36.762Z,14.77
2023-04-28T16:15:04.429Z,13.25
2023-04-28T16:17:33.958Z,13.65
2023-04-28T16:20:01.816Z,19.38
2023-04-28T16:22:29.787Z,15.60
2023-04-28T16:24:57.729Z,8.82
2023-04-28T16:27:25.241Z,9.13
2023-04-28T16:29:52.657Z,8.32
2023-04-28T16:32:19.920Z,5.28
2023-04-28T16:34:47.553Z,5.72
2023-04-28T16:37:14.926Z,4.40
2023-04-28T16:39:42.419Z,3.90
2023-04-28T16:42:09.649Z,5.60
2023-04-28T16:44:37.055Z,5.28
2023-04-28T16:47:04.582Z,4.65
2023-04-28T16:49:32.223Z,4.47
2023-04-28T16:52:03.988Z,5.65
2023-04-28T16:54:31.612Z,4.72
2023-04-28T16:56:59.400Z,5.53
2023-04-28T16:59:29.507Z,4.97
2023-04-28T17:01:57.283Z,3.47
2023-04-28T17:04:25.191Z,4.47
2023-04-28T17:06:53.111Z,5.25
2023-04-28T17:09:20.861Z,3.92
2023-04-28T17:11:48.545Z,4.35
2023-04-28T17:14:15.883Z,4.88
2023-04-28T17:16:45.901Z,7.30
2023-04-28T17:19:13.603Z,3.67
2023-04-28T17:21:40.821Z,5.82
2023-04-28T17:24:08.950Z,5.00
2023-04-28T17:26:36.504Z,4.38
2023-04-28T17:29:04.098Z,8.02
2023-04-28T17:31:31.472Z,3.75
2023-04-28T17:33:59.779Z,4.28
2023-04-28T17:36:27.263Z,3.65
2023-04-28T17:38:55.192Z,4.97
2023-04-28T17:41:22.926Z,5.65
2023-04-28T17:43:53.608Z,3.95
2023-04-28T17:46:21.832Z,4.30
2023-04-28T17:48:49.508Z,5.20
2023-04-28T17:51:16.787Z,4.43
2023-04-28T17:53:46.233Z,8.40
2023-04-28T17:56:13.544Z,4.15
2023-04-28T17:58:41.505Z,5.55
2023-04-28T18:01:09.137Z,3.42
2023-04-28T18:03:37.923Z,3.45
2023-04-28T18:06:06.209Z,5.30
2023-04-28T18:08:34.552Z,3.65
2023-04-28T18:11:01.813Z,5.00
2023-04-28T18:13:29.185Z,3.90
2023-04-28T18:15:56.653Z,2.75
2023-04-28T18:18:23.907Z,3.95
2023-04-28T18:20:57.259Z,4.07
2023-04-28T18:23:24.862Z,3.22
2023-04-28T18:25:52.304Z,3.35
2023-04-28T18:28:19.765Z,6.30
2023-04-28T18:30:46.921Z,3.90
2023-04-28T18:33:14.158Z,3.47
2023-04-28T18:35:41.543Z,2.58
2023-04-28T18:38:08.806Z,2.58
2023-04-28T18:40:38.612Z,6.65
2023-04-28T18:43:06.386Z,2.58
2023-04-28T18:45:39.114Z,3.45
2023-04-28T18:48:07.768Z,2.83
2023-04-28T18:50:35.262Z,4.35
2023-04-28T18:53:03.644Z,5.18
2023-04-28T18:55:32.993Z,2.38
2023-04-28T18:58:02.200Z,3.40
2023-04-28T19:00:30.046Z,5.43
2023-04-28T19:02:57.478Z,3.92
2023-04-28T19:05:25.817Z,2.45
2023-04-28T19:07:53.048Z,3.10
2023-04-28T19:10:20.499Z,3.42
2023-04-28T19:12:47.792Z,3.65
2023-04-28T19:15:15.375Z,2.97
2023-04-28T19:17:42.739Z,3.55
2023-04-28T19:20:10.108Z,2.67
2023-04-28T19:22:43.914Z,3.22
2023-04-28T19:25:11.556Z,2.85
2023-04-28T19:27:40.480Z,2.25
2023-04-28T19:30:12.912Z,2.80
2023-04-28T19:32:41.233Z,2.95
2023-04-28T19:35:08.797Z,3.58
2023-04-28T19:37:36.110Z,2.03
2023-04-28T19:40:07.163Z,3.45
2023-04-28T19:42:35.229Z,1.77
2023-04-28T19:45:02.653Z,1.73
2023-04-28T19:47:33.696Z,2.00
2023-04-28T19:50:01.050Z,2.42
2023-04-28T19:52:28.362Z,3.65
2023-04-28T19:54:55.716Z,2.38
2023-04-28T19:57:23.596Z,1.80
2023-04-28T19:59:51.346Z,3.42
2023-04-28T20:02:19.157Z,3.03
2023-04-28T20:04:46.817Z,3.58
2023-04-28T20:07:14.332Z,4.30
2023-04-28T20:09:41.566Z,3.88
2023-04-28T20:12:09.057Z,2.17
2023-04-28T20:14:39.627Z,4.60
2023-04-28T20:17:08.694Z,1.95
2023-04-28T20:19:37.014Z,2.38
2023-04-28T20:22:08.211Z,2.97
2023-04-28T20:24:37.075Z,1.80
2023-04-28T20:27:04.910Z,2.13
2023-04-28T20:29:34.600Z,2.25
2023-04-28T20:32:02.498Z,3.65
2023-04-28T20:34:33.354Z,2.10
2023-04-28T20:37:03.359Z,3.55
2023-04-28T20:39:31.078Z,2.43
2023-04-28T20:41:59.457Z,2.08
2023-04-28T20:44:26.836Z,2.55
2023-04-28T20:46:54.094Z,1.77
2023-04-28T20:49:21.461Z,2.72
2023-04-28T20:51:48.807Z,2.10
2023-04-28T20:54:16.044Z,1.95
2023-04-28T20:56:43.501Z,4.00
2023-04-28T20:59:10.860Z,4.05
2023-04-28T21:01:38.313Z,2.22
2023-04-28T21:04:06.261Z,2.40
2023-04-28T21:06:33.750Z,2.88
2023-04-28T21:09:01.509Z,2.58
2023-04-28T21:11:28.916Z,1.98
2023-04-28T21:13:56.309Z,2.92
2023-04-28T21:16:23.598Z,1.85
2023-04-28T21:18:51.045Z,1.55
2023-04-28T21:21:18.680Z,2.83
2023-04-28T21:23:45.999Z,1.50
2023-04-28T21:26:13.474Z,2.78
2023-04-28T21:28:41.708Z,2.50
2023-04-28T21:31:09.840Z,2.00
2023-04-28T21:33:37.196Z,2.42
2023-04-28T21:36:09.126Z,2.65
2023-04-28T21:38:39.407Z,2.55
2023-04-28T21:41:07.838Z,1.60
2023-04-28T21:43:35.254Z,2.15
2023-04-28T21:46:02.869Z,2.05
2023-04-28T21:48:30.102Z,5.43
2023-04-28T21:50:57.932Z,2.42
2023-04-28T21:53:25.309Z,2.55
2023-04-28T21:55:52.556Z,2.58
2023-04-28T21:58:20.589Z,2.67
2023-04-28T22:00:47.872Z,2.38
2023-04-28T22:03:15.739Z,2.33
2023-04-28T22:05:44.175Z,2.03
2023-04-28T22:08:12.004Z,2.72
2023-04-28T22:10:39.298Z,2.83
2023-04-28T22:13:06.828Z,2.72
2023-04-28T22:15:35.251Z,2.10
2023-04-28T22:18:02.545Z,3.60
2023-04-28T22:20:29.974Z,2.40
2023-04-28T22:22:57.706Z,2.08
2023-04-28T22:25:25.309Z,5.03
2023-04-28T22:27:52.600Z,2.35
2023-04-28T22:30:19.931Z,3.85
2023-04-28T22:32:47.676Z,3.35
2023-04-28T22:35:16.761Z,2.10
2023-04-28T22:37:44.288Z,2.95
2023-04-28T22:40:11.875Z,4.07
2023-04-28T22:42:40.018Z,3.30
2023-04-28T22:45:07.695Z,2.22
2023-04-28T22:47:35.855Z,2.33
2023-04-28T22:50:06.461Z,2.10
2023-04-28T22:52:35.178Z,2.60
2023-04-28T22:55:02.522Z,2.67
2023-04-28T22:57:30.078Z,2.08
2023-04-28T22:59:57.287Z,3.25
2023-04-28T23:02:24.971Z,4.13
2023-04-28T23:04:52.584Z,2.78
2023-04-28T23:07:20.047Z,4.30
2023-04-28T23:09:47.280Z,3.42
2023-04-28T23:12:14.648Z,2.80
2023-04-28T23:14:41.852Z,3.00
2023-04-28T23:17:09.105Z,2.15
2023-04-28T23:19:39.076Z,2.30
2023-04-28T23:22:09.548Z,2.80
2023-04-28T23:24:38.025Z,2.22
2023-04-28T23:27:05.705Z,2.40
2023-04-28T23:29:33.551Z,2.40
2023-04-28T23:32:01.008Z,2.72
2023-04-28T23:34:28.632Z,2.50
2023-04-28T23:36:55.921Z,2.67
2023-04-28T23:39:23.224Z,2.78
2023-04-28T23:41:51.127Z,2.50
2023-04-28T23:44:18.739Z,5.88
2023-04-28T23:46:45.950Z,5.30
2023-04-28T23:49:13.754Z,5.28
2023-04-28T23:51:41.185Z,4.30
2023-04-28T23:54:09.434Z,4.57
2023-04-28T23:56:36.736Z,5.05
2023-04-28T23:59:04.897Z,4.60
